createdAt,value
2018-09-05T00:00:40.025Z,10.03
2018-09-05T00:03:08.818Z,9.20
2018-09-05T00:05:37.521Z,9.63
2018-09-05T00:08:06.477Z,9.90
2018-09-05T00:26:49.038Z,9.37
2018-09-05T00:29:17.498Z,9.60
2018-09-05T00:31:46.203Z,11.07
2018-09-05T00:34:14.746Z,10.47
2018-09-05T00:36:43.336Z,10.07
2018-09-05T00:39:12.287Z,8.90
2018-09-05T00:41:40.915Z,9.20
2018-09-05T00:44:09.621Z,10.53
2018-09-05T00:46:38.691Z,9.87
2018-09-05T00:49:07.477Z,11.43
2018-09-05T00:51:36.418Z,11.00
2018-09-05T00:54:05.506Z,10.23
2018-09-05T00:56:34.358Z,10.60
2018-09-05T00:59:03.411Z,9.70
2018-09-05T01:01:32.205Z,10.50
2018-09-05T01:04:01.290Z,10.57
2018-09-05T01:06:30.133Z,10.83
2018-09-05T01:08:58.928Z,10.50
2018-09-05T01:11:27.802Z,11.10
2018-09-05T01:13:56.715Z,9.80
2018-09-05T01:16:25.715Z,11.00
2018-09-05T01:18:54.466Z,9.37
2018-09-05T01:21:24.392Z,10.33
2018-09-05T01:23:53.087Z,10.28
2018-09-05T01:26:21.969Z,10.30
2018-09-05T01:28:50.502Z,9.60
2018-09-05T01:31:19.174Z,10.10
2018-09-05T01:33:47.938Z,10.23
2018-09-05T01:36:17.719Z,10.00
2018-09-05T01:38:46.424Z,10.70
2018-09-05T01:41:15.891Z,9.67
2018-09-05T01:43:44.838Z,9.47
2018-09-05T01:46:14.698Z,9.97
2018-09-05T01:48:43.629Z,10.23
2018-09-05T01:51:12.209Z,9.10
2018-09-05T01:53:41.061Z,9.70
2018-09-05T01:56:09.965Z,10.47
2018-09-05T02:24:46.256Z,10.97
2018-09-05T02:27:15.232Z,11.43
2018-09-05T02:29:43.838Z,12.00
2018-09-05T02:32:12.729Z,10.83
2018-09-05T02:34:41.411Z,10.90
2018-09-05T02:37:10.180Z,9.63
2018-09-05T02:39:39.204Z,10.73
2018-09-05T02:42:08.073Z,10.80
2018-09-05T02:44:36.864Z,10.97
2018-09-05T02:47:06.178Z,11.00
2018-09-05T02:49:35.149Z,10.40
2018-09-05T02:52:03.773Z,10.20
2018-09-05T02:54:32.628Z,10.53
2018-09-05T02:57:01.478Z,10.23
2018-09-05T02:59:30.267Z,10.80
2018-09-05T03:01:59.010Z,10.20
2018-09-05T03:04:28.035Z,10.63
2018-09-05T03:06:56.619Z,10.03
2018-09-05T03:09:25.355Z,10.10
2018-09-05T03:11:54.032Z,9.87
2018-09-05T03:14:22.750Z,10.33
2018-09-05T03:16:51.377Z,10.30
2018-09-05T03:19:19.997Z,10.47
2018-09-05T03:21:48.667Z,10.23
2018-09-05T03:24:17.090Z,10.50
2018-09-05T03:26:45.978Z,10.17
2018-09-05T03:29:14.844Z,10.90
2018-09-05T03:31:43.551Z,11.27
2018-09-05T03:34:12.304Z,10.10
2018-09-05T03:36:40.958Z,10.47
2018-09-05T03:39:11.411Z,10.33
2018-09-05T03:41:40.756Z,10.27
2018-09-05T03:44:09.692Z,10.50
2018-09-05T03:46:39.143Z,10.10
2018-09-05T03:49:08.122Z,10.20
2018-09-05T03:51:37.542Z,10.50
2018-09-05T03:54:06.741Z,10.60
2018-09-05T03:56:35.535Z,10.67
2018-09-05T03:59:04.804Z,10.60
2018-09-05T04:01:33.601Z,10.80
2018-09-05T04:04:02.332Z,10.70
2018-09-05T04:06:32.395Z,10.03
2018-09-05T04:09:01.254Z,10.53
2018-09-05T04:11:30.181Z,10.53
2018-09-05T04:13:58.778Z,10.80
2018-09-05T04:16:27.384Z,10.27
2018-09-05T04:18:55.990Z,10.03
2018-09-05T04:21:24.624Z,10.03
2018-09-05T04:23:53.211Z,9.97
2018-09-05T04:26:21.992Z,10.10
2018-09-05T04:28:50.908Z,10.13
2018-09-05T04:31:19.626Z,10.03
2018-09-05T04:33:48.264Z,9.40
2018-09-05T04:36:17.184Z,10.53
2018-09-05T04:38:46.138Z,10.67
2018-09-05T04:41:15.004Z,10.17
2018-09-05T04:43:43.892Z,9.57
2018-09-05T04:46:13.037Z,10.20
2018-09-05T04:48:42.058Z,9.97
2018-09-05T04:51:11.362Z,9.90
2018-09-05T04:53:40.354Z,10.27
2018-09-05T04:56:12.882Z,9.97
2018-09-05T04:58:43.012Z,10.70
2018-09-05T05:01:11.807Z,10.53
2018-09-05T05:03:40.588Z,11.10
2018-09-05T05:06:14.185Z,9.40
2018-09-05T05:08:42.807Z,9.27
2018-09-05T05:11:11.559Z,9.63
2018-09-05T05:13:40.858Z,10.57
2018-09-05T05:16:10.872Z,9.63
2018-09-05T05:18:41.014Z,10.07
2018-09-05T05:21:13.868Z,11.17
2018-09-05T05:23:43.509Z,9.60
2018-09-05T05:26:13.830Z,10.37
2018-09-05T05:28:42.815Z,10.70
2018-09-05T05:31:11.727Z,11.00
2018-09-05T05:33:40.725Z,10.73
2018-09-05T05:36:09.706Z,9.73
2018-09-05T05:38:38.462Z,11.15
2018-09-05T05:41:07.370Z,11.60
2018-09-05T05:43:36.342Z,10.97
2018-09-05T05:46:05.801Z,11.20
2018-09-05T05:48:36.362Z,11.17
2018-09-05T05:51:06.216Z,10.00
2018-09-05T05:53:35.678Z,10.30
2018-09-05T05:56:06.093Z,11.50
2018-09-05T05:58:35.219Z,11.77
2018-09-05T06:01:04.272Z,11.57
2018-09-05T06:03:33.708Z,12.53
2018-09-05T06:06:02.833Z,11.87
2018-09-05T06:08:33.302Z,11.40
2018-09-05T06:11:02.340Z,11.03
2018-09-05T06:13:31.382Z,10.60
2018-09-05T06:15:59.967Z,10.70
2018-09-05T06:18:29.130Z,11.77
2018-09-05T06:20:58.201Z,10.90
2018-09-05T06:23:27.274Z,11.03
2018-09-05T06:25:56.329Z,11.57
2018-09-05T06:28:25.389Z,11.87
2018-09-05T06:30:54.562Z,11.77
2018-09-05T06:33:23.276Z,11.53
2018-09-05T06:35:52.720Z,12.37
2018-09-05T06:38:21.286Z,11.97
2018-09-05T06:40:50.101Z,12.77
2018-09-05T06:43:18.909Z,14.00
2018-09-05T06:45:47.460Z,12.07
2018-09-05T06:48:16.075Z,13.33
2018-09-05T06:50:44.864Z,13.60
2018-09-05T06:53:13.588Z,14.60
2018-09-05T06:55:42.737Z,16.03
2018-09-05T06:58:11.987Z,15.70
2018-09-05T07:00:41.271Z,17.60
2018-09-05T07:03:10.167Z,16.70
2018-09-05T07:05:39.444Z,16.43
2018-09-05T07:08:08.744Z,18.05
2018-09-05T07:10:37.881Z,18.00
2018-09-05T07:13:07.077Z,19.50
2018-09-05T07:15:35.924Z,19.97
2018-09-05T07:18:05.079Z,18.80
2018-09-05T07:20:34.046Z,19.50
2018-09-05T07:23:03.487Z,23.93
2018-09-05T07:25:32.658Z,21.10
2018-09-05T07:28:01.763Z,21.03
2018-09-05T07:30:30.911Z,21.62
2018-09-05T07:32:59.913Z,19.33
2018-09-05T07:35:29.014Z,22.27
2018-09-05T07:37:57.901Z,19.30
2018-09-05T07:40:26.932Z,19.95
2018-09-05T07:42:55.862Z,21.80
2018-09-05T07:45:24.719Z,20.87
2018-09-05T07:47:53.509Z,20.93
2018-09-05T07:50:22.682Z,22.80
2018-09-05T07:52:51.469Z,21.97
2018-09-05T07:55:20.710Z,19.77
2018-09-05T07:57:49.614Z,22.67
2018-09-05T08:00:19.472Z,21.53
2018-09-05T08:02:48.433Z,21.80
2018-09-05T08:05:17.578Z,23.17
2018-09-05T08:07:46.779Z,25.20
2018-09-05T08:10:15.871Z,22.00
2018-09-05T08:12:45.607Z,25.10
2018-09-05T08:15:14.672Z,24.20
2018-09-05T08:17:43.571Z,25.77
2018-09-05T08:20:12.857Z,24.57
2018-09-05T08:22:42.056Z,24.70
2018-09-05T08:25:12.118Z,27.07
2018-09-05T08:27:44.738Z,18.70
2018-09-05T08:30:13.588Z,29.37
2018-09-05T08:32:42.678Z,26.97
2018-09-05T08:35:12.099Z,28.20
2018-09-05T08:37:40.879Z,28.60
2018-09-05T08:40:09.714Z,26.83
2018-09-05T08:42:38.634Z,27.27
2018-09-05T08:45:09.685Z,26.77
2018-09-05T08:47:38.448Z,26.93
2018-09-05T08:50:07.218Z,23.97
2018-09-05T08:52:36.038Z,26.60
2018-09-05T08:55:05.021Z,26.80
2018-09-05T08:57:34.123Z,25.10
2018-09-05T09:00:03.521Z,21.17
2018-09-05T09:02:32.426Z,21.77
2018-09-05T09:05:01.414Z,22.40
2018-09-05T09:07:30.652Z,22.00
2018-09-05T09:09:59.460Z,23.00
2018-09-05T09:12:28.312Z,21.30
2018-09-05T09:14:57.030Z,20.43
2018-09-05T09:17:25.861Z,20.20
2018-09-05T09:19:54.820Z,18.87
2018-09-05T09:22:23.640Z,19.90
2018-09-05T09:24:52.441Z,18.40
2018-09-05T09:27:21.433Z,19.50
2018-09-05T09:29:50.300Z,19.17
2018-09-05T09:32:19.290Z,19.80
2018-09-05T09:34:47.992Z,18.67
2018-09-05T09:37:17.009Z,16.10
2018-09-05T09:39:45.890Z,15.63
2018-09-05T09:42:14.751Z,14.73
2018-09-05T09:44:43.259Z,14.80
2018-09-05T09:47:12.142Z,15.60
2018-09-05T09:49:42.587Z,15.03
2018-09-05T09:52:16.799Z,17.00
2018-09-05T09:54:46.399Z,17.30
2018-09-05T09:57:15.607Z,16.20
2018-09-05T09:59:44.666Z,17.07
2018-09-05T10:02:18.809Z,17.37
2018-09-05T10:04:53.097Z,18.37
2018-09-05T10:07:27.800Z,18.03
2018-09-05T10:10:05.360Z,17.97
2018-09-05T10:12:39.544Z,17.73
2018-09-05T10:15:19.279Z,17.83
2018-09-05T10:18:53.167Z,17.17
2018-09-05T10:21:22.774Z,18.70
2018-09-05T10:23:52.032Z,17.20
2018-09-05T10:26:22.968Z,19.73
2018-09-05T10:28:51.994Z,18.13
2018-09-05T10:31:21.151Z,19.60
2018-09-05T10:33:50.253Z,19.97
2018-09-05T10:36:20.873Z,18.83
2018-09-05T10:38:50.090Z,18.10
2018-09-05T10:41:19.071Z,18.90
2018-09-05T10:46:41.099Z,18.40
2018-09-05T10:49:11.132Z,18.80
2018-09-05T10:51:49.173Z,19.83
2018-09-05T10:57:11.589Z,18.27
2018-09-05T10:59:40.730Z,19.13
2018-09-05T11:02:10.057Z,18.97
2018-09-05T11:04:39.262Z,17.53
2018-09-05T11:07:09.455Z,18.67
2018-09-05T11:09:39.420Z,19.70
2018-09-05T11:12:08.520Z,18.20
2018-09-05T11:14:37.094Z,18.63
2018-09-05T11:17:06.117Z,18.10
2018-09-05T11:19:34.909Z,18.73
2018-09-05T11:22:04.095Z,19.60
2018-09-05T11:24:32.962Z,19.80
2018-09-05T11:27:02.195Z,19.17
2018-09-05T11:29:31.304Z,20.17
2018-09-05T11:32:00.853Z,18.33
2018-09-05T11:34:31.216Z,18.03
2018-09-05T11:37:16.427Z,17.90
2018-09-05T11:39:45.692Z,17.57
2018-09-05T11:42:16.984Z,18.00
2018-09-05T11:44:47.116Z,18.30
2018-09-05T11:47:16.665Z,17.90
2018-09-05T11:49:46.734Z,18.90
2018-09-05T11:52:15.960Z,17.43
2018-09-05T11:54:49.030Z,17.20
2018-09-05T11:57:18.215Z,18.87
2018-09-05T11:59:50.258Z,18.10
2018-09-05T12:02:21.414Z,19.57
2018-09-05T12:04:50.441Z,18.32
2018-09-05T12:07:19.216Z,17.67
2018-09-05T12:09:48.197Z,16.70
2018-09-05T12:12:17.618Z,16.53
2018-09-05T12:14:49.858Z,16.23
2018-09-05T12:17:18.764Z,17.03
2018-09-05T12:19:49.392Z,16.97
2018-09-05T12:22:23.623Z,16.63
2018-09-05T12:24:58.445Z,18.17
2018-09-05T12:27:46.222Z,17.97
2018-09-05T12:30:16.409Z,17.80
2018-09-05T12:36:12.057Z,18.17
2018-09-05T13:50:30.712Z,15.80
2018-09-05T13:53:04.530Z,14.30
2018-09-05T13:55:34.336Z,13.77
2018-09-05T13:58:06.404Z,13.40
2018-09-05T14:00:43.995Z,14.20
2018-09-05T14:03:31.630Z,13.27
2018-09-05T14:06:01.151Z,14.73
2018-09-05T14:08:32.544Z,14.97
2018-09-05T14:11:06.982Z,13.03
2018-09-05T14:13:37.338Z,12.97
2018-09-05T14:16:10.379Z,13.35
2018-09-05T14:18:56.916Z,13.40
2018-09-05T14:21:29.734Z,13.10
2018-09-05T14:24:14.740Z,11.90
2018-09-05T14:29:40.012Z,12.23
2018-09-05T14:32:09.616Z,12.53
2018-09-05T14:34:39.483Z,12.27
2018-09-05T14:37:22.215Z,12.83
2018-09-05T15:25:19.393Z,12.60
2018-09-05T15:27:49.181Z,13.57
2018-09-05T15:30:45.425Z,13.70
2018-09-05T15:33:24.107Z,17.27
2018-09-05T15:35:55.192Z,13.53
2018-09-05T15:38:24.658Z,13.70
2018-09-05T15:41:00.455Z,13.33
2018-09-05T15:43:30.636Z,13.30
2018-09-05T15:46:06.363Z,12.87
2018-09-05T15:48:37.596Z,13.30
2018-09-05T15:51:07.092Z,13.40
2018-09-05T15:53:36.459Z,13.80
2018-09-05T15:56:09.328Z,12.78
2018-09-05T15:58:38.574Z,14.90
2018-09-05T16:01:08.084Z,12.90
2018-09-05T16:03:39.835Z,12.93
2018-09-05T16:06:18.448Z,12.90
2018-09-05T16:08:48.061Z,13.67
2018-09-05T16:11:18.496Z,13.70
2018-09-05T16:13:47.825Z,12.60
2018-09-05T16:16:19.559Z,13.13
2018-09-05T16:18:49.373Z,13.10
2018-09-05T16:21:19.118Z,13.37
2018-09-05T16:23:48.579Z,13.33
2018-09-05T16:26:17.446Z,15.27
2018-09-05T16:28:46.862Z,13.23
2018-09-05T16:31:15.923Z,12.87
2018-09-05T17:40:27.950Z,12.87
2018-09-05T17:42:56.715Z,14.13
2018-09-05T17:45:25.406Z,14.00
2018-09-05T17:47:54.702Z,13.93
2018-09-05T17:50:24.236Z,15.00
2018-09-05T17:52:53.068Z,13.10
2018-09-05T17:55:21.829Z,15.80
2018-09-05T17:57:51.451Z,16.30
2018-09-05T18:00:20.567Z,16.50
2018-09-05T18:02:49.564Z,16.57
2018-09-05T18:05:19.207Z,17.70
2018-09-05T18:07:48.576Z,16.60
2018-09-05T18:10:17.392Z,16.93
2018-09-05T18:12:46.589Z,15.90
2018-09-05T18:15:15.732Z,19.17
2018-09-05T18:17:44.937Z,16.47
2018-09-05T18:20:25.409Z,16.03
2018-09-05T18:22:54.433Z,16.83
2018-09-05T18:25:23.410Z,16.30
2018-09-05T18:27:52.304Z,17.37
2018-09-05T18:31:53.471Z,16.43
2018-09-05T18:34:22.246Z,17.40
2018-09-05T18:36:51.258Z,16.43
2018-09-05T18:39:19.983Z,15.90
2018-09-05T18:41:48.982Z,17.17
2018-09-05T18:44:17.814Z,16.10
2018-09-05T18:46:51.327Z,16.50
2018-09-05T18:49:20.886Z,16.57
2018-09-05T18:51:50.284Z,15.83
2018-09-05T18:54:20.682Z,16.10
2018-09-05T18:56:49.810Z,16.87
2018-09-05T18:59:18.902Z,17.07
2018-09-05T19:01:47.990Z,17.47
2018-09-05T19:04:16.937Z,17.87
2018-09-05T19:06:45.878Z,19.13
2018-09-05T19:09:24.919Z,17.80
2018-09-05T19:11:53.923Z,18.17
2018-09-05T19:14:22.939Z,18.03
2018-09-05T19:16:52.366Z,16.10
2018-09-05T19:19:21.439Z,17.53
2018-09-05T19:21:50.546Z,17.43
2018-09-05T19:24:19.638Z,16.97
2018-09-05T19:26:48.326Z,16.87
2018-09-05T19:29:24.289Z,19.17
2018-09-05T19:31:52.979Z,18.30
2018-09-05T19:34:21.848Z,18.50
2018-09-05T19:36:50.705Z,18.00
2018-09-05T19:39:21.808Z,18.90
2018-09-05T19:41:51.352Z,17.97
2018-09-05T19:44:20.282Z,20.07
2018-09-05T19:46:49.612Z,19.33
2018-09-05T19:49:18.872Z,17.50
2018-09-05T19:51:48.039Z,17.83
2018-09-05T19:54:16.897Z,18.73
2018-09-05T19:56:45.820Z,18.13
2018-09-05T19:59:15.079Z,18.40
2018-09-05T20:01:43.657Z,18.50
2018-09-05T20:04:15.167Z,18.88
2018-09-05T20:06:44.096Z,17.90
2018-09-05T20:09:12.883Z,20.37
2018-09-05T20:11:41.560Z,18.43
2018-09-05T20:14:10.586Z,18.70
2018-09-05T20:16:39.454Z,18.57
2018-09-05T20:19:08.434Z,17.87
2018-09-05T20:21:37.209Z,19.20
2018-09-05T20:24:06.062Z,18.33
2018-09-05T20:26:35.049Z,18.55
2018-09-05T20:29:03.997Z,19.23
2018-09-05T20:31:32.725Z,19.00
2018-09-05T20:34:01.601Z,17.90
2018-09-05T20:36:31.558Z,18.00
2018-09-05T20:39:00.683Z,17.87
2018-09-05T20:41:29.880Z,18.90
2018-09-05T20:43:58.801Z,19.03
2018-09-05T20:46:27.688Z,19.20
2018-09-05T20:48:56.691Z,18.62
2018-09-05T20:51:25.750Z,19.30
2018-09-05T20:53:55.348Z,18.47
2018-09-05T20:56:24.473Z,19.13
2018-09-05T20:58:53.426Z,18.90
2018-09-05T21:01:22.563Z,18.20
2018-09-05T21:03:51.408Z,18.07
2018-09-05T21:06:20.399Z,17.87
2018-09-05T21:08:49.337Z,18.37
2018-09-05T21:11:18.227Z,18.95
2018-09-05T21:13:47.375Z,19.17
2018-09-05T21:16:16.598Z,19.93
2018-09-05T21:18:45.542Z,17.73
2018-09-05T21:21:14.314Z,18.80
2018-09-05T21:23:42.972Z,18.13
2018-09-05T21:26:11.940Z,19.10
2018-09-05T21:28:40.877Z,20.03
2018-09-05T21:31:09.708Z,18.97
2018-09-05T21:33:38.385Z,20.68
2018-09-05T21:36:07.355Z,19.77
2018-09-05T21:38:35.781Z,19.10
2018-09-05T21:41:04.827Z,19.07
2018-09-05T21:43:34.142Z,18.50
2018-09-05T21:46:04.027Z,18.97
2018-09-05T21:48:32.708Z,18.00
2018-09-05T21:51:01.521Z,18.60
2018-09-05T21:53:30.388Z,18.90
2018-09-05T21:55:59.298Z,17.48
2018-09-05T21:58:28.093Z,17.07
2018-09-05T22:00:56.968Z,18.53
2018-09-05T22:03:26.249Z,16.73
2018-09-05T22:05:55.057Z,17.10
2018-09-05T22:08:23.616Z,17.07
2018-09-05T22:10:52.576Z,16.10
2018-09-05T22:13:22.651Z,17.40
2018-09-05T22:15:51.898Z,15.63
2018-09-05T22:18:20.426Z,17.83
2018-09-05T22:20:49.010Z,16.95
2018-09-05T22:23:17.564Z,16.33
2018-09-05T22:25:47.106Z,17.77
2018-09-05T22:28:17.420Z,18.40
2018-09-05T22:30:46.441Z,17.50
2018-09-05T22:33:15.440Z,18.00
2018-09-05T22:35:43.846Z,16.73
2018-09-05T22:38:12.584Z,17.70
2018-09-05T22:40:47.106Z,17.87
2018-09-05T22:43:26.827Z,17.77
2018-09-05T22:46:06.918Z,17.93
2018-09-05T22:48:47.676Z,17.50
2018-09-05T22:53:50.722Z,19.00
2018-09-05T22:56:36.561Z,17.70
2018-09-05T22:59:20.437Z,17.03
2018-09-05T23:04:06.952Z,18.67
2018-09-05T23:06:46.867Z,18.23
2018-09-05T23:09:16.735Z,19.00
2018-09-05T23:11:59.398Z,17.83
2018-09-05T23:16:36.905Z,17.90
2018-09-05T23:19:33.091Z,17.77
2018-09-05T23:22:01.855Z,18.20
2018-09-05T23:24:30.760Z,18.37
2018-09-05T23:26:59.819Z,17.50
2018-09-05T23:29:28.531Z,17.60
2018-09-05T23:31:57.468Z,18.43
2018-09-05T23:34:26.356Z,17.80
2018-09-05T23:36:55.285Z,18.40
2018-09-05T23:39:23.758Z,16.77
2018-09-05T23:41:52.571Z,17.40
2018-09-05T23:44:21.336Z,17.00
2018-09-05T23:46:49.980Z,16.90
2018-09-05T23:49:19.038Z,16.70
2018-09-05T23:51:47.804Z,17.10
2018-09-05T23:54:16.535Z,17.63
2018-09-05T23:56:45.245Z,18.30
2018-09-05T23:59:13.828Z,19.30
